Hellas Glory — 9HWN9 — position and weather

sailwx.info

Track history (hours):
 
Tides and Currents Weather Stations Pressure Air Temp Water Temp Dewpoint Dewpoint Depression Visibility Wind Speed Wind Dir Waves Ship Positions

Hellas Glory

Last reported at 2017-Feb-27 14:16 UTC. Time now 2017-Feb-27 15:47 UTC.
Position N 14°06' W 018°00'.

Length 225 m; draft 8 m.

Type: Tanker. MMSI: 249636000.

Date/timePositionNaut miles runAvg speedWind from/ knotsBaromVisibWave heightAir tempDewpointWater temp
2017-Feb-27 14:16N 14°06' W 018°00'910.6
2017-Feb-27 13:25N 14°15' W 018°01'2 1.8
2017-Feb-27 12:33N 14°16' W 018°02'1510.3
2017-Feb-27 11:03N 14°32' W 018°02'1114.6
2017-Feb-27 10:18N 14°43' W 018°02'1614.7
2017-Feb-27 09:12N 14°59' W 018°02'1214.8
2017-Feb-27 08:22N 15°11' W 018°02'4514.7
2017-Feb-27 05:19N 15°56' W 017°60'1215.0
2017-Feb-27 04:33N 16°07' W 017°59'70414.6
2017-Feb-25 04:30N 27°36' W 015°24'1415.1
2017-Feb-25 03:33N 27°49' W 015°17'1615.5
2017-Feb-25 02:33N 28°04' W 015°20'3 2.7
2017-Feb-25 01:33N 28°07' W 015°19'5 4.9
2017-Feb-25 00:33N 28°12' W 015°17'1313.1
2017-Feb-24 23:34N 28°24' W 015°15'1212.1
2017-Feb-24 22:33N 28°36' W 015°12'1010.3
2017-Feb-24 21:33N 28°46' W 015°08'67114.2
2017-Feb-22 22:25N 39°31' W 011°27'1514.8
2017-Feb-22 21:23N 39°46' W 011°21'4314.7
2017-Feb-22 18:26N 40°28' W 011°07'49514.6
2017-Feb-21 08:33N 48°02' W 006°30'10913.4
2017-Feb-21 00:23N 49°21' W 004°37'1513.3
2017-Feb-20 23:15N 49°29' W 004°17'2313.7
2017-Feb-20 21:31N 49°39' W 003°44'1414.4
2017-Feb-20 20:33N 49°47' W 003°26'1414.4
2017-Feb-20 19:33N 49°54' W 003°07'1414.1
2017-Feb-20 18:33N 49°60' W 002°47'3113.5
2017-Feb-20 16:17N 50°08' W 002°01'912.7
2017-Feb-20 15:33N 50°10' W 001°47'1212.4
2017-Feb-20 14:33N 50°13' W 001°28'1212.2
2017-Feb-20 13:33N 50°16' W 001°10'2613.2
2017-Feb-20 11:33N 50°23' W 000°30'1414.1
2017-Feb-20 10:33N 50°27' W 000°09'1414.4
2017-Feb-20 09:33N 50°31' E 000°13'1514.6
2017-Feb-20 08:33N 50°36' E 000°35'1414.1
2017-Feb-20 07:33N 50°43' E 000°54'1413.5
2017-Feb-20 06:33N 50°51' E 001°11'1312.8
2017-Feb-20 05:33N 51°00' E 001°25'1313.0
2017-Feb-20 04:33N 51°10' E 001°39'1413.9
2017-Feb-20 03:33N 51°20' E 001°53'1111.4
2017-Feb-20 02:34N 51°22' E 002°11'1414.1
2017-Feb-20 01:34N 51°23' E 002°34'1414.1
2017-Feb-20 00:33N 51°23' E 002°57'1515.0
2017-Feb-19 23:33N 51°24' E 003°21'1312.8
2017-Feb-19 22:33N 51°26' E 003°41'7 6.8
2017-Feb-19 21:33N 51°20' E 003°46'  
Track history (hours):
 
Tides and Currents Weather Stations Pressure Air Temp Water Temp Dewpoint Dewpoint Depression Visibility Wind Speed Wind Dir Waves Ship Positions

Hellas Glory

Last reported at 2017-Feb-27 14:16 UTC. Time now 2017-Feb-27 15:47 UTC.
Position N 14°06' W 018°00'.

Length 225 m; draft 8 m.

Type: Tanker. MMSI: 249636000.

Date/timePositionNaut miles runAvg speedWind from/ knotsBaromVisibWave heightAir tempDewpointWater temp
2017-Feb-27 14:16N 14°06' W 018°00'910.6
2017-Feb-27 13:25N 14°15' W 018°01'2 1.8
2017-Feb-27 12:33N 14°16' W 018°02'1510.3
2017-Feb-27 11:03N 14°32' W 018°02'1114.6
2017-Feb-27 10:18N 14°43' W 018°02'1614.7
2017-Feb-27 09:12N 14°59' W 018°02'1214.8
2017-Feb-27 08:22N 15°11' W 018°02'4514.7
2017-Feb-27 05:19N 15°56' W 017°60'1215.0
2017-Feb-27 04:33N 16°07' W 017°59'70414.6
2017-Feb-25 04:30N 27°36' W 015°24'1415.1
2017-Feb-25 03:33N 27°49' W 015°17'1615.5
2017-Feb-25 02:33N 28°04' W 015°20'3 2.7
2017-Feb-25 01:33N 28°07' W 015°19'5 4.9
2017-Feb-25 00:33N 28°12' W 015°17'1313.1
2017-Feb-24 23:34N 28°24' W 015°15'1212.1
2017-Feb-24 22:33N 28°36' W 015°12'1010.3
2017-Feb-24 21:33N 28°46' W 015°08'67114.2
2017-Feb-22 22:25N 39°31' W 011°27'1514.8
2017-Feb-22 21:23N 39°46' W 011°21'4314.7
2017-Feb-22 18:26N 40°28' W 011°07'49514.6
2017-Feb-21 08:33N 48°02' W 006°30'10913.4
2017-Feb-21 00:23N 49°21' W 004°37'1513.3
2017-Feb-20 23:15N 49°29' W 004°17'2313.7
2017-Feb-20 21:31N 49°39' W 003°44'1414.4
2017-Feb-20 20:33N 49°47' W 003°26'1414.4
2017-Feb-20 19:33N 49°54' W 003°07'1414.1
2017-Feb-20 18:33N 49°60' W 002°47'3113.5
2017-Feb-20 16:17N 50°08' W 002°01'912.7
2017-Feb-20 15:33N 50°10' W 001°47'1212.4
2017-Feb-20 14:33N 50°13' W 001°28'1212.2
2017-Feb-20 13:33N 50°16' W 001°10'2613.2
2017-Feb-20 11:33N 50°23' W 000°30'1414.1
2017-Feb-20 10:33N 50°27' W 000°09'1414.4
2017-Feb-20 09:33N 50°31' E 000°13'1514.6
2017-Feb-20 08:33N 50°36' E 000°35'1414.1
2017-Feb-20 07:33N 50°43' E 000°54'1413.5
2017-Feb-20 06:33N 50°51' E 001°11'1312.8
2017-Feb-20 05:33N 51°00' E 001°25'1313.0
2017-Feb-20 04:33N 51°10' E 001°39'1413.9
2017-Feb-20 03:33N 51°20' E 001°53'1111.4
2017-Feb-20 02:34N 51°22' E 002°11'1414.1
2017-Feb-20 01:34N 51°23' E 002°34'1414.1
2017-Feb-20 00:33N 51°23' E 002°57'1515.0
2017-Feb-19 23:33N 51°24' E 003°21'1312.8
2017-Feb-19 22:33N 51°26' E 003°41'7 6.8
2017-Feb-19 21:33N 51°20' E 003°46'  

Dump ship's entire track history